This is the latest recevied weather packets stored in our database for station/object LA9UTA-13. If no packets are shown the sender has not sent any weather packets the latest 10 day(s).
| Time | Temp. | Humidity | Pressure | Rain* | Wind** | Luminosity | Snow |
|---|---|---|---|---|---|---|---|
| 1788419409 | 13.33° C | 63% | 1006.9 hPa | 0 mm | - | 164 W/m² | - |
| 1788418209 | 13.33° C | 59% | 1005.8 hPa | 0 mm | - | 41 W/m² | - |
| 1788417009 | 12.78° C | 62% | 1005.9 hPa | 0 mm | - | 99 W/m² | - |
| 1788415809 | 11.11° C | 67% | 1006 hPa | 0 mm | - | 35 W/m² | - |
| 1788414609 | 10.56° C | 68% | 1006.1 hPa | 0 mm | - | 50 W/m² | - |
| 1788413409 | 9.44° C | 72% | 1006.2 hPa | 0 mm | - | 34 W/m² | - |
| 1788412211 | 8.33° C | 74% | 1006.3 hPa | 0 mm | - | 23 W/m² | - |
| 1788411009 | 7.78° C | 77% | 1006.4 hPa | 0 mm | - | 15 W/m² | - |
| 1788408609 | 7.78° C | 76% | 1007.5 hPa | 0 mm | - | 2 W/m² | - |
| 1788407409 | 7.22° C | 77% | 1006.4 hPa | 0 mm | - | 0 W/m² | - |
| 1788406209 | 7.78° C | 75% | 1006.4 hPa | 0 mm | - | 0 W/m² | - |
| 1788405009 | 7.22° C | 76% | 1007.5 hPa | 0 mm | - | 0 W/m² | - |
| 1788403809 | 7.78° C | 73% | 1007.4 hPa | 0 mm | - | 0 W/m² | - |
| 1788402609 | 8.33° C | 73% | 1007.4 hPa | 0 mm | - | 0 W/m² | - |
| 1788401410 | 5° C | 85% | 1007.6 hPa | 0 mm | - | 0 W/m² | - |
| 1788400209 | 5° C | 85% | 1007.6 hPa | 0 mm | - | 0 W/m² | - |
| 1788376210 | 12.22° C | 58% | 1007 hPa | 0 mm | - | 0 W/m² | - |
| 1788373809 | 13.33° C | 60% | 1006.9 hPa | 0 mm | - | 1 W/m² | - |
| 1788372609 | 15° C | 52% | 1005.8 hPa | 0 mm | - | 6 W/m² | - |
| 1788370209 | 16.67° C | 46% | 1005.6 hPa | 0 mm | - | 20 W/m² | - |
| 1788367809 | 18.33° C | 42% | 1006.4 hPa | 0 mm | - | 58 W/m² | - |
| 1788363009 | 17.78° C | 47% | 1005.5 hPa | 0 mm | - | 69 W/m² | - |
| 1788359409 | 17.78° C | 47% | 1006.5 hPa | 0 mm | - | 143 W/m² | - |
| 1788357009 | 17.78° C | 47% | 1006.4 hPa | 0 mm | - | 97 W/m² | - |
| 1788355809 | 18.89° C | 46% | 1006.4 hPa | 0 mm | - | 52 W/m² | - |
* Rain latest hour (hover to see other rain measurements)
** Current wind speed in m/s (hover to see current wind gust speed)